Terminal Aerodrome Forecast
Issued by NWS Pittsburgh, PA

Home | Current Version | Previous Version | Text Only | Print | Product List | Glossary On
Versions: 1 2 3 4 5 6 7 8 9 10 11 12 13 14 15 16 17 18 19 20 21 22 23 24 25 26 27 28 29 30 31 32
000
FTUS41 KPBZ 290522
TAFPIT
TAF
KPIT 290522Z 2906/3012 23005KT P6SM -SHRA SCT025 OVC035
      TEMPO 2906/2909 5SM -SHRA BKN025
     FM290900 25010KT P6SM VCSH BKN025
     FM291200 28012KT P6SM SCT100
     FM300300 20005KT P6SM SCT100=

USA.gov is the U.S. government's official web portal to all federal, state and local government web resources and services.